Time;durP1;ratioP1;P1;durP2;ratioP2;P2;SDS_P1;SDS_P2;PMS_P1;PMS_P2;Temp;Humidity;BMP_temperature;BMP_pressure;BME280_temperature;BME280_humidity;BME280_pressure;Samples;Min_cycle;Max_cycle;Signal;HPM_P1;HPM_P2
2022/07/04 00:01:37;;;;;;;5.23;2.17;;;;;;;13.65;77.71;101860.69;5141930;29;20027;-74
2022/07/04 00:04:09;;;;;;;5.07;2.20;;;;;;;13.62;78.12;101858.09;5142026;29;20039;-77
2022/07/04 00:06:40;;;;;;;4.33;2.33;;;;;;;13.38;78.76;101857.41;5141714;29;20040;-75
2022/07/04 00:09:11;;;;;;;5.50;2.60;;;;;;;13.42;79.10;101853.03;5141838;29;20032;-77
2022/07/04 00:11:43;;;;;;;3.60;2.37;;;;;;;13.38;79.05;101853.91;5141830;29;20035;-77
2022/07/04 00:14:14;;;;;;;4.67;2.57;;;;;;;13.26;79.54;101852.22;5142070;29;20024;-73
2022/07/04 00:16:45;;;;;;;7.13;3.17;;;;;;;13.30;79.70;101848.72;5142190;29;20026;-77
2022/07/04 00:19:17;;;;;;;7.60;2.90;;;;;;;13.26;80.07;101847.84;5142139;29;20051;-74
2022/07/04 00:21:48;;;;;;;3.10;2.23;;;;;;;13.19;80.26;101847.94;5142121;29;20028;-75
2022/07/04 00:24:19;;;;;;;5.37;2.53;;;;;;;13.29;80.11;101850.44;5142229;29;20111;-74
2022/07/04 00:26:51;;;;;;;5.77;2.80;;;;;;;13.19;80.33;101847.94;5142001;29;20074;-74
2022/07/04 00:29:22;;;;;;;8.73;2.87;;;;;;;13.41;79.88;101846.03;5141784;29;20104;-75
2022/07/04 00:31:53;;;;;;;7.93;2.73;;;;;;;13.26;79.21;101836.53;5142343;29;20135;-76
2022/07/04 00:34:25;;;;;;;4.40;2.40;;;;;;;13.26;80.09;101847.84;5132328;29;20028;-74
2022/07/04 00:36:56;;;;;;;6.27;2.80;;;;;;;13.21;80.34;101854.00;5158798;29;20020;-73
2022/07/04 00:39:29;;;;;;;5.00;2.73;;;;;;;13.16;80.28;101850.56;5153865;29;20099;-74
2022/07/04 00:42:00;;;;;;;4.25;2.60;;;;;;;13.09;80.47;101849.75;5142557;29;20027;-74
2022/07/04 00:44:36;;;;;;;5.17;2.80;;;;;;;13.19;80.67;101850.53;5141822;29;20028;-76
2022/07/04 00:47:08;;;;;;;6.80;2.63;;;;;;;12.93;80.88;101847.19;5141096;29;20055;-76
2022/07/04 00:49:40;;;;;;;4.63;2.97;;;;;;;12.95;81.17;101849.81;5141604;29;20142;-74
2022/07/04 00:52:12;;;;;;;5.78;2.85;;;;;;;12.96;81.38;101846.31;5141834;29;20027;-74
2022/07/04 00:54:45;;;;;;;;;;;;;;;13.02;78.90;101848.03;5142204;29;20111;-73
2022/07/04 00:57:16;;;;;;;6.20;2.60;;;;;;;12.92;80.28;101844.59;5141474;29;20009;-76
2022/07/04 00:59:47;;;;;;;4.90;3.20;;;;;;;12.88;80.50;101848.09;5141875;29;20032;-76
2022/07/04 01:02:19;;;;;;;7.10;3.10;;;;;;;12.85;80.72;101846.38;5141556;29;20063;-74
2022/07/04 01:04:50;;;;;;;4.97;2.70;;;;;;;12.79;80.67;101843.78;5141756;29;20027;-78
2022/07/04 01:07:23;;;;;;;6.17;3.07;;;;;;;12.82;81.21;101840.28;5141413;29;20028;-78
2022/07/04 01:09:55;;;;;;;6.93;3.17;;;;;;;12.83;80.95;101840.28;5141532;29;20038;-73
2022/07/04 01:12:28;;;;;;;7.00;3.60;;;;;;;12.74;81.51;101829.84;5141459;29;20107;-73
2022/07/04 01:14:59;;;;;;;;;;;;;;;12.77;79.26;101828.09;5141628;29;20476;-76
2022/07/04 01:17:30;;;;;;;6.27;2.93;;;;;;;12.76;80.81;101836.81;5141080;29;19921;-73
2022/07/04 01:20:04;;;;;;;7.63;3.00;;;;;;;12.68;81.52;101825.50;5140888;29;20350;-77
2022/07/04 01:22:35;;;;;;;9.52;3.28;;;;;;;12.60;81.20;101827.28;5140943;29;20131;-74
2022/07/04 01:25:08;;;;;;;9.33;2.97;;;;;;;12.60;81.43;101822.06;5140958;29;20034;-75
2022/07/04 01:27:39;;;;;;;;;;;;;;;12.58;79.44;101821.22;5141401;29;20415;-76
2022/07/04 01:30:11;;;;;;;5.65;3.28;;;;;;;12.44;81.52;101818.66;5140662;29;19918;-76
2022/07/04 01:32:43;;;;;;;10.00;3.83;;;;;;;12.41;81.74;101816.03;5140465;29;20032;-78
2022/07/04 01:35:15;;;;;;;8.10;3.75;;;;;;;12.33;82.13;101807.34;5141185;29;20047;-77
2022/07/04 01:37:46;;;;;;;6.40;2.97;;;;;;;12.40;82.17;101809.09;5141802;29;20028;-76
2022/07/04 01:40:18;;;;;;;9.93;3.73;;;;;;;12.45;81.74;101809.06;5142697;29;20040;-74
2022/07/04 01:42:49;;;;;;;8.43;3.37;;;;;;;12.51;82.64;101811.63;5143720;29;20031;-73
2022/07/04 01:45:21;;;;;;;9.17;3.60;;;;;;;12.45;81.93;101802.09;5137956;29;20038;-73
2022/07/04 01:47:52;;;;;;;8.30;3.87;;;;;;;12.45;82.56;101802.09;5140684;29;20019;-73
2022/07/04 01:50:24;;;;;;;11.10;3.50;;;;;;;12.47;82.35;101799.47;5139187;29;20031;-74
2022/07/04 01:52:55;;;;;;;10.97;4.20;;;;;;;12.27;83.22;101789.06;5158042;29;20047;-73
2022/07/04 01:55:27;;;;;;;6.73;3.40;;;;;;;12.19;83.77;101797.81;5142237;29;20032;-74
2022/07/04 01:58:00;;;;;;;6.80;3.53;;;;;;;12.24;84.75;101799.56;5145639;29;20436;-76
2022/07/04 02:03:21;;;;;;;6.72;3.45;;;;;;;12.09;85.11;101788.28;5142563;29;20043;-76
2022/07/04 02:05:52;;;;;;;9.87;3.53;;;;;;;12.01;85.25;101790.03;5141252;29;20100;-76
2022/07/04 02:09:14;;;;;;;6.13;2.97;;;;;;;11.93;85.71;101791.78;5140788;29;20079;-74
2022/07/04 02:11:15;;;;;;;7.38;2.97;;;;;;;11.87;85.60;101790.03;5140722;29;20138;-75
2022/07/04 02:13:46;;;;;;;7.73;3.27;;;;;;;11.85;85.61;101786.56;5140429;29;20131;-75
2022/07/04 02:16:18;;;;;;;10.10;3.47;;;;;;;11.92;85.79;101790.94;5140261;29;20055;-76
2022/07/04 02:18:49;;;;;;;7.70;3.30;;;;;;;11.91;85.98;101788.28;5140458;29;20031;-76
2022/07/04 02:21:20;;;;;;;8.93;3.53;;;;;;;11.79;86.16;101786.56;5140028;29;20546;-77
2022/07/04 02:23:52;;;;;;;6.67;3.33;;;;;;;11.80;86.46;101778.75;5140061;29;20482;-73
2022/07/04 02:26:23;;;;;;;3.83;3.27;;;;;;;11.79;86.69;101786.56;5139588;29;20034;-75
2022/07/04 02:28:54;;;;;;;7.03;3.37;;;;;;;11.66;86.77;101794.41;5139533;29;20023;-75
2022/07/04 02:31:26;;;;;;;4.73;3.33;;;;;;;11.65;87.08;101797.91;5139788;29;20051;-77
2022/07/04 02:33:57;;;;;;;5.47;3.17;;;;;;;11.76;87.17;101800.50;5139886;29;20031;-74
2022/07/04 02:36:29;;;;;;;4.83;3.20;;;;;;;11.61;86.99;101806.63;5140329;29;20036;-74
2022/07/04 02:39:00;;;;;;;4.40;3.20;;;;;;;11.56;87.05;101802.25;5140783;29;20513;-74
2022/07/04 02:41:32;;;;;;;7.10;3.30;;;;;;;11.60;87.63;101804.00;5162043;29;20012;-78
2022/07/04 02:44:04;;;;;;;5.10;3.03;;;;;;;11.49;87.40;101806.63;5156153;29;20038;-73
2022/07/04 02:46:35;;;;;;;7.30;3.53;;;;;;;11.55;87.86;101804.00;5144543;29;20024;-73
2022/07/04 02:49:07;;;;;;;5.87;3.50;;;;;;;11.49;86.86;101804.91;5148206;29;20020;-73
2022/07/04 02:51:38;;;;;;;5.93;3.77;;;;;;;11.57;87.70;101802.25;5145142;29;20032;-74
2022/07/04 02:54:10;;;;;;;5.50;3.07;;;;;;;11.45;88.07;101803.16;5146072;29;20095;-74
2022/07/04 02:56:42;;;;;;;5.87;3.37;;;;;;;11.61;88.61;101806.63;5146136;29;20036;-74
2022/07/04 02:59:13;;;;;;;8.53;4.07;;;;;;;11.46;88.77;101804.91;5145127;29;20090;-75
2022/07/04 03:01:44;;;;;;;6.53;3.87;;;;;;;11.46;88.33;101810.13;5142321;29;20151;-75
2022/07/04 03:04:16;;;;;;;7.03;3.33;;;;;;;11.56;88.84;101807.47;5122696;29;20127;-77
2022/07/04 03:06:47;;;;;;;7.70;4.00;;;;;;;11.50;88.75;101813.59;5139296;29;20032;-73
2022/07/04 03:09:18;;;;;;;7.03;3.87;;;;;;;11.26;88.66;101815.31;5138772;29;20088;-74
2022/07/04 03:11:50;;;;;;;9.47;4.07;;;;;;;11.43;88.65;101809.22;5138508;29;20046;-74
2022/07/04 03:14:21;;;;;;;8.67;3.73;;;;;;;11.39;89.06;101821.41;5138679;29;20039;-76
2022/07/04 03:16:52;;;;;;;8.70;4.20;;;;;;;11.40;88.48;101835.31;5139053;29;20024;-75
2022/07/04 03:19:24;;;;;;;6.33;4.00;;;;;;;11.50;89.22;101837.94;5138670;29;20063;-75
2022/07/04 03:21:55;;;;;;;12.90;4.93;;;;;;;11.38;89.44;101824.03;5138930;29;20110;-75
2022/07/04 03:24:26;;;;;;;9.70;4.40;;;;;;;11.47;89.99;101837.09;5138861;29;20030;-74
2022/07/04 03:26:58;;;;;;;6.10;3.80;;;;;;;11.45;89.84;101828.38;5138646;29;20075;-74
2022/07/04 03:29:29;;;;;;;8.57;4.60;;;;;;;11.38;90.20;101831.84;5138936;29;20476;-76
2022/07/04 03:32:01;;;;;;;9.03;5.53;;;;;;;11.50;90.47;101835.34;5138570;29;20044;-77
2022/07/04 03:34:32;;;;;;;5.03;3.93;;;;;;;11.49;89.64;101844.06;5139027;29;20035;-78
2022/07/04 03:37:03;;;;;;;11.10;4.60;;;;;;;11.51;90.24;101846.66;5138784;29;20593;-76
2022/07/04 03:39:35;;;;;;;8.60;4.07;;;;;;;11.52;90.46;101844.94;5138429;29;20111;-74
2022/07/04 03:42:06;;;;;;;12.83;6.00;;;;;;;11.48;90.75;101842.31;5139190;29;20027;-77
2022/07/04 03:44:38;;;;;;;8.73;4.13;;;;;;;11.55;91.18;101847.53;5138482;29;20043;-74
2022/07/04 03:47:09;;;;;;;11.07;4.70;;;;;;;11.57;91.01;101857.09;5121260;29;20434;-75
2022/07/04 03:49:40;;;;;;;9.60;4.83;;;;;;;11.53;91.09;101860.59;5138361;29;20492;-76
2022/07/04 03:52:12;;;;;;;7.73;4.73;;;;;;;11.59;91.26;101862.31;5138295;29;20031;-75
2022/07/04 03:54:43;;;;;;;9.50;5.10;;;;;;;11.64;91.41;101868.41;5138324;29;20076;-76
2022/07/04 03:57:15;;;;;;;11.17;5.30;;;;;;;11.53;91.50;101868.44;5138400;29;20052;-75
2022/07/04 03:59:46;;;;;;;11.67;5.67;;;;;;;11.56;91.54;101858.00;5138295;29;20153;-74
2022/07/04 04:02:18;;;;;;;8.53;4.57;;;;;;;11.58;91.74;101865.81;5137969;29;20054;-74
2022/07/04 04:07:39;;;;;;;7.63;5.30;;;;;;;11.70;92.25;101868.41;5140673;29;20442;-73
2022/07/04 04:10:10;;;;;;;7.53;4.80;;;;;;;11.71;92.11;101874.53;5142071;29;20123;-75
2022/07/04 04:12:42;;;;;;;8.00;4.43;;;;;;;11.77;91.95;101864.06;5141797;29;20030;-76
2022/07/04 04:15:13;;;;;;;11.93;4.73;;;;;;;11.79;91.82;101857.97;5141476;29;20079;-74
2022/07/04 04:17:45;;;;;;;9.07;5.10;;;;;;;11.76;91.86;101863.19;5141693;29;20532;-74
2022/07/04 04:20:16;;;;;;;11.87;5.60;;;;;;;11.86;92.15;101869.28;5141811;29;20062;-73
2022/07/04 04:22:47;;;;;;;9.47;5.30;;;;;;;11.89;92.12;101877.13;5141874;29;20114;-75
2022/07/04 04:25:19;;;;;;;11.27;5.97;;;;;;;11.92;91.98;101881.53;5141729;29;20027;-75
2022/07/04 04:27:50;;;;;;;9.17;5.13;;;;;;;11.89;91.62;101877.13;5141445;29;20058;-74
2022/07/04 04:30:21;;;;;;;12.80;4.67;;;;;;;11.95;91.66;101886.75;5141556;29;20146;-74
2022/07/04 04:32:52;;;;;;;7.07;4.60;;;;;;;11.92;91.42;101887.59;5141342;29;20111;-73
2022/07/04 04:35:24;;;;;;;11.10;5.57;;;;;;;11.92;91.75;101892.84;5141441;29;20028;-75
2022/07/04 04:37:55;;;;;;;8.73;4.90;;;;;;;11.95;91.88;101890.22;5141040;29;20118;-73
2022/07/04 04:40:27;;;;;;;8.63;5.73;;;;;;;11.98;92.00;101894.59;5141435;29;20039;-74
2022/07/04 04:42:58;;;;;;;7.43;4.97;;;;;;;12.02;92.26;101894.56;5141417;29;20030;-73
2022/07/04 04:45:30;;;;;;;14.37;7.50;;;;;;;12.07;92.30;101888.47;5148495;29;20082;-73
2022/07/04 04:48:01;;;;;;;12.53;5.83;;;;;;;12.13;92.40;101883.22;5156625;29;20016;-72
2022/07/04 04:50:32;;;;;;;9.70;5.23;;;;;;;12.18;92.59;101884.94;5152302;29;20040;-73
2022/07/04 04:53:03;;;;;;;11.23;5.17;;;;;;;12.20;92.42;101878.00;5142243;29;20502;-74
2022/07/04 04:55:35;;;;;;;8.93;4.80;;;;;;;12.27;92.36;101876.25;5141012;29;20118;-73
2022/07/04 04:58:06;;;;;;;9.70;5.00;;;;;;;12.29;92.74;101877.09;5141226;29;20450;-75
2022/07/04 05:00:38;;;;;;;9.30;5.13;;;;;;;12.39;91.99;101877.94;5141410;29;20035;-74
2022/07/04 05:03:10;;;;;;;13.20;5.78;;;;;;;12.45;92.26;101870.09;5141235;29;20024;-74
2022/07/04 05:05:41;;;;;;;10.33;5.20;;;;;;;12.55;92.01;101878.75;5140980;29;20028;-74
2022/07/04 05:08:13;;;;;;;8.73;5.43;;;;;;;12.63;91.78;101876.13;5141359;29;20494;-73
2022/07/04 05:10:44;;;;;;;9.57;5.23;;;;;;;12.68;91.77;101879.59;5141048;29;20528;-74
2022/07/04 05:13:15;;;;;;;10.73;5.50;;;;;;;12.78;91.48;101873.44;5140658;29;20028;-74
2022/07/04 05:15:47;;;;;;;7.03;5.13;;;;;;;12.86;91.23;101868.16;5139275;29;20039;-73
2022/07/04 05:18:18;;;;;;;11.27;5.53;;;;;;;12.93;90.67;101873.38;5140191;29;20468;-74
2022/07/04 05:20:50;;;;;;;11.77;5.50;;;;;;;13.03;90.68;101870.72;5140514;29;20036;-73
2022/07/04 05:23:21;;;;;;;12.63;5.70;;;;;;;13.11;90.47;101875.00;5140671;29;20046;-73
2022/07/04 05:25:52;;;;;;;9.37;5.00;;;;;;;13.21;89.97;101880.19;5140603;29;20050;-74
2022/07/04 05:28:24;;;;;;;14.17;6.10;;;;;;;13.31;89.95;101874.00;5122959;29;20036;-74
2022/07/04 05:30:55;;;;;;;11.83;5.50;;;;;;;13.39;89.66;101879.22;5140097;29;20048;-74
2022/07/04 05:33:26;;;;;;;9.43;5.60;;;;;;;13.44;89.76;101875.72;5139937;29;20158;-75
2022/07/04 05:35:58;;;;;;;13.63;6.70;;;;;;;13.53;89.70;101887.00;5140290;29;20465;-73
2022/07/04 05:38:29;;;;;;;9.03;5.00;;;;;;;13.58;89.12;101878.22;5139827;29;20119;-74
2022/07/04 05:41:01;;;;;;;13.47;5.20;;;;;;;13.65;89.10;101890.41;5140294;29;20020;-74
2022/07/04 05:43:32;;;;;;;10.40;5.70;;;;;;;13.74;88.88;101881.59;5140780;29;20344;-72
2022/07/04 05:46:05;;;;;;;8.00;5.30;;;;;;;13.86;88.66;101891.06;5140904;29;20024;-73
2022/07/04 05:48:36;;;;;;;;;;;;;;;13.90;88.17;101882.31;5124902;29;20028;-73
2022/07/04 05:51:08;;;;;;;8.20;4.65;;;;;;;14.03;88.74;101886.56;5154680;29;19915;-72
2022/07/04 05:53:39;;;;;;;9.87;4.43;;;;;;;14.10;88.16;101886.50;5151076;29;20059;-72
2022/07/04 05:56:10;;;;;;;9.80;4.33;;;;;;;14.16;87.58;101887.31;5152375;29;20036;-73
2022/07/04 05:58:41;;;;;;;15.80;5.40;;;;;;;14.29;86.76;101895.06;5155119;29;20050;-73
2022/07/04 06:01:13;;;;;;;13.50;4.30;;;;;;;14.38;86.75;101900.22;5154853;29;20032;-72
2022/07/04 06:03:44;;;;;;;8.13;4.83;;;;;;;14.49;85.79;101895.72;5143432;29;20059;-74
2022/07/04 06:06:16;;;;;;;7.40;3.57;;;;;;;14.53;85.80;101894.78;5143059;29;20024;-75
2022/07/04 06:08:48;;;;;;;9.13;4.70;;;;;;;14.68;85.48;101895.50;5142040;29;20066;-76
2022/07/04 06:11:19;;;;;;;12.07;4.83;;;;;;;14.80;84.63;101899.78;5141149;29;20112;-74
2022/07/04 06:13:51;;;;;;;;;;;;;;;14.89;84.05;101903.16;5141448;29;20135;-76
2022/07/04 06:16:23;;;;;;;6.85;3.90;;;;;;;15.02;83.59;101889.84;5140223;29;20331;-75
2022/07/04 06:18:54;;;;;;;8.60;4.57;;;;;;;15.14;83.08;101893.16;5140531;29;20023;-73
2022/07/04 06:21:25;;;;;;;9.73;4.70;;;;;;;15.19;81.71;101892.22;5140670;29;20046;-74
2022/07/04 06:23:58;;;;;;;11.73;4.23;;;;;;;15.37;81.99;101897.19;5140038;29;20079;-74
2022/07/04 06:26:29;;;;;;;8.15;3.88;;;;;;;15.61;81.16;101897.72;5139602;29;20036;-74
2022/07/04 06:29:01;;;;;;;7.43;4.07;;;;;;;15.65;80.13;101900.28;5139874;29;20082;-74
2022/07/04 06:31:32;;;;;;;8.57;4.33;;;;;;;15.64;79.39;101901.16;5140112;29;20126;-76
2022/07/04 06:36:54;;;;;;;12.07;4.30;;;;;;;15.74;80.04;101896.63;5139758;29;20141;-75
2022/07/04 06:39:25;;;;;;;8.43;3.50;;;;;;;15.70;79.85;101894.97;5139804;29;20028;-74
2022/07/04 06:41:56;;;;;;;7.00;3.70;;;;;;;15.74;78.54;101896.63;5140132;29;20459;-74
2022/07/04 06:44:29;;;;;;;8.23;3.40;;;;;;;15.90;78.05;101905.16;5139718;29;20039;-74
2022/07/04 06:47:00;;;;;;;10.48;3.55;;;;;;;15.98;78.90;101898.00;5139834;29;20383;-72
2022/07/04 06:49:31;;;;;;;6.47;3.43;;;;;;;16.18;75.55;101897.66;5143852;29;20023;-73
2022/07/04 06:52:03;;;;;;;9.70;4.13;;;;;;;16.33;75.16;101901.75;5153893;29;20031;-72
2022/07/04 06:54:34;;;;;;;11.20;4.00;;;;;;;16.58;73.76;101914.44;5138093;29;20042;-75
2022/07/04 06:57:06;;;;;;;10.37;3.60;;;;;;;16.77;73.16;101914.94;5140586;29;20311;-73
2022/07/04 06:59:37;;;;;;;9.33;3.47;;;;;;;16.96;70.20;101904.91;5140511;29;20024;-76
2022/07/04 07:02:08;;;;;;;8.77;3.27;;;;;;;17.07;70.50;101900.28;5139411;29;20027;-75
2022/07/04 07:04:41;;;;;;;8.23;4.03;;;;;;;16.96;70.84;101899.66;5139056;29;20027;-75
2022/07/04 07:07:12;;;;;;;9.73;4.20;;;;;;;16.91;71.37;101897.09;5139065;29;20094;-76
2022/07/04 07:09:43;;;;;;;6.93;3.43;;;;;;;16.99;70.34;101888.19;5139336;29;20449;-75
2022/07/04 07:12:15;;;;;;;7.20;3.17;;;;;;;16.99;71.12;101891.69;5139213;29;20051;-73
2022/07/04 07:14:47;;;;;;;9.63;3.73;;;;;;;16.85;70.78;101896.34;5139303;29;20024;-76
2022/07/04 07:17:18;;;;;;;8.50;3.90;;;;;;;16.90;71.53;101899.78;5139115;29;20082;-76
2022/07/04 07:19:50;;;;;;;7.60;3.60;;;;;;;17.06;71.23;101890.63;5139192;29;20083;-76
2022/07/04 07:22:21;;;;;;;10.23;4.27;;;;;;;17.16;71.12;101883.38;5139291;29;20260;-74
2022/07/04 07:24:52;;;;;;;7.67;3.77;;;;;;;17.38;70.21;101886.41;5138852;29;20020;-74
2022/07/04 07:27:24;;;;;;;10.83;4.20;;;;;;;17.56;70.35;101889.50;5137285;29;20043;-74
2022/07/04 07:29:55;;;;;;;8.03;3.47;;;;;;;17.52;69.51;101891.34;5139055;29;20050;-75
2022/07/04 07:32:26;;;;;;;9.00;4.50;;;;;;;17.53;69.35;101898.34;5121916;29;20346;-74
2022/07/04 07:34:58;;;;;;;7.33;3.63;;;;;;;17.62;68.26;101898.13;5139087;29;20055;-75
2022/07/04 07:37:29;;;;;;;7.07;2.93;;;;;;;17.74;66.66;101915.44;5139289;29;20032;-74
2022/07/04 07:40:02;;;;;;;5.67;3.20;;;;;;;17.80;68.42;101909.97;5138989;29;20032;-74
2022/07/04 07:42:33;;;;;;;8.48;3.53;;;;;;;17.81;65.78;101909.09;5141076;29;20032;-74
2022/07/04 07:45:05;;;;;;;5.87;2.57;;;;;;;17.77;64.75;101912.69;5142888;29;20380;-75
2022/07/04 07:47:38;;;;;;;6.43;3.38;;;;;;;17.77;62.81;101904.78;5143028;29;20436;-75
2022/07/04 07:50:10;;;;;;;5.13;2.20;;;;;;;18.02;63.78;101898.91;5126284;29;20048;-74
2022/07/04 07:52:41;;;;;;;7.40;2.43;;;;;;;18.02;63.05;101888.38;5142857;29;20058;-74
2022/07/04 07:55:12;;;;;;;4.97;1.80;;;;;;;18.11;62.73;101897.81;5142583;29;20183;-76
2022/07/04 07:57:44;;;;;;;5.40;3.10;;;;;;;18.00;62.16;101890.16;5142888;29;20028;-75
2022/07/04 08:00:16;;;;;;;6.83;2.93;;;;;;;18.12;61.92;101881.94;5142798;29;20448;-76
2022/07/04 08:05:38;;;;;;;7.88;2.30;;;;;;;18.25;60.03;101881.59;5142447;29;20035;-76
2022/07/04 08:08:10;;;;;;;6.05;2.30;;;;;;;18.36;59.88;101874.25;5141853;29;20027;-76
2022/07/04 08:10:41;;;;;;;4.60;3.00;;;;;;;18.45;59.84;101874.00;5142535;29;20039;-75
2022/07/04 08:13:12;;;;;;;4.73;2.03;;;;;;;18.53;58.89;101885.22;5142284;29;20020;-75
2022/07/04 08:15:44;;;;;;;5.17;2.40;;;;;;;18.51;58.96;101878.22;5142168;29;20035;-74
2022/07/04 08:18:17;;;;;;;4.10;1.87;;;;;;;18.68;58.46;101881.25;5141903;29;20086;-74
2022/07/04 08:20:49;;;;;;;8.45;2.65;;;;;;;18.61;58.19;101884.09;5141658;29;20441;-77
2022/07/04 08:23:20;;;;;;;7.43;2.53;;;;;;;18.66;58.44;101884.84;5142119;29;20506;-74
2022/07/04 08:25:52;;;;;;;5.93;2.30;;;;;;;18.81;58.31;101899.38;5142148;29;20020;-74
2022/07/04 08:28:24;;;;;;;5.40;2.15;;;;;;;18.99;58.42;101890.06;5142256;29;20043;-75
2022/07/04 08:30:56;;;;;;;5.13;1.77;;;;;;;19.16;57.69;101900.13;5141674;29;20179;-76
2022/07/04 08:33:27;;;;;;;;;;;;;;;19.17;56.32;101909.78;5142446;29;20031;-76
2022/07/04 08:35:59;;;;;;;4.85;2.55;;;;;;;19.20;56.77;101902.63;5141649;29;19914;-75
2022/07/04 08:38:30;;;;;;;9.90;1.90;;;;;;;19.26;56.63;101897.13;5124632;29;20603;-74
2022/07/04 08:41:03;;;;;;;5.87;2.37;;;;;;;19.20;56.37;101905.25;5141901;29;20492;-76
2022/07/04 08:43:36;;;;;;;6.50;2.20;;;;;;;19.38;57.31;101900.31;5141902;29;20023;-78
2022/07/04 08:46:09;;;;;;;4.53;2.00;;;;;;;19.39;56.38;101904.69;5125095;29;20035;-76
2022/07/04 08:48:42;;;;;;;3.60;1.65;;;;;;;19.54;55.62;101911.25;5141725;29;20039;-74
2022/07/04 08:51:23;;;;;;;5.68;2.25;;;;;;;19.61;56.91;101907.47;5141998;29;20055;-78
2022/07/04 08:53:57;;;;;;;8.90;2.60;;;;;;;19.62;56.11;101906.59;5141849;29;20495;-76
2022/07/04 08:59:19;;;;;;;4.15;1.92;;;;;;;19.82;55.90;101905.97;5157721;29;20044;-74
2022/07/04 09:01:50;;;;;;;6.00;1.90;;;;;;;20.00;56.27;101902.69;5145571;29;20040;-74
2022/07/04 09:04:22;;;;;;;6.13;2.22;;;;;;;20.14;55.67;101902.22;5141766;29;20036;-74
2022/07/04 09:06:54;;;;;;;4.33;2.10;;;;;;;20.23;54.66;101899.22;5141450;29;20429;-74
2022/07/04 09:09:26;;;;;;;10.33;2.03;;;;;;;20.51;56.01;101900.00;5141978;29;20028;-75
2022/07/04 09:11:57;;;;;;;5.97;2.78;;;;;;;20.64;55.92;101903.09;5141517;29;20028;-75
2022/07/04 09:14:29;;;;;;;6.37;2.13;;;;;;;20.72;54.62;101901.91;5141312;29;20035;-74
2022/07/04 09:17:00;;;;;;;6.20;1.93;;;;;;;20.55;52.43;101894.53;5141227;29;20091;-76
2022/07/04 09:19:32;;;;;;;6.37;2.47;;;;;;;20.88;53.88;101896.00;5141567;29;20047;-75
2022/07/04 09:22:09;;;;;;;5.68;1.77;;;;;;;20.65;52.83;101902.19;5140862;29;20027;-75
2022/07/04 09:24:44;;;;;;;3.35;1.60;;;;;;;20.64;53.49;101901.31;5141235;29;20027;-74
2022/07/04 09:27:36;;;;;;;6.20;2.63;;;;;;;20.92;53.57;101897.63;5141074;29;20082;-74
2022/07/04 09:30:08;;;;;;;5.50;2.00;;;;;;;20.70;52.88;101895.78;5140961;29;20102;-78
2022/07/04 09:32:46;;;;;;;8.77;1.90;;;;;;;20.63;52.65;101901.34;5140840;29;20044;-76
2022/07/04 09:35:21;;;;;;;5.45;1.75;;;;;;;21.07;52.56;101896.16;5140739;29;20039;-75
2022/07/04 09:37:54;;;;;;;4.60;1.35;;;;;;;20.87;51.09;101889.84;5140644;29;20555;-76
2022/07/04 09:40:28;;;;;;;3.47;1.88;;;;;;;20.78;51.63;101900.78;5140627;29;20102;-76
2022/07/04 09:43:10;;;;;;;6.90;1.80;;;;;;;20.89;52.21;101901.25;5140709;29;20059;-74
2022/07/04 09:45:54;;;;;;;6.43;1.90;;;;;;;20.89;51.64;101900.38;5140586;29;20042;-75
2022/07/04 09:48:46;;;;;;;6.85;2.05;;;;;;;20.58;51.46;101894.44;5140527;29;20377;-77
2022/07/04 09:51:38;;;;;;;5.07;1.80;;;;;;;21.07;51.44;101902.31;5139924;29;20095;-74
2022/07/04 09:54:14;;;;;;;6.22;1.83;;;;;;;21.48;49.91;101894.53;5122959;29;20299;-75
2022/07/04 09:56:48;;;;;;;4.75;1.50;;;;;;;21.89;50.09;101893.72;5143000;29;20024;-75
2022/07/04 09:59:20;;;;;;;3.83;1.85;;;;;;;21.71;48.28;101898.00;5146109;29;20400;-74
2022/07/04 10:02:06;;;;;;;4.47;1.83;;;;;;;21.68;49.78;101893.69;5145926;29;20053;-74
2022/07/04 10:04:44;;;;;;;5.50;2.03;;;;;;;21.99;48.52;101887.09;5143347;29;20027;-75
2022/07/04 10:07:35;;;;;;;5.63;1.88;;;;;;;22.58;48.88;101887.19;5144158;29;20035;-75
2022/07/04 10:10:37;;;;;;;5.75;1.92;;;;;;;22.18;50.44;101900.41;5149310;29;20061;-75
2022/07/04 10:13:11;;;;;;;5.78;2.38;;;;;;;22.25;48.94;101895.72;5141712;29;20042;-75
2022/07/04 10:15:43;;;;;;;4.53;1.70;;;;;;;23.49;46.00;101891.72;5140982;29;20039;-76
2022/07/04 10:18:18;;;;;;;6.63;2.17;;;;;;;24.72;42.33;101888.97;5139822;29;20032;-76
2022/07/04 10:20:51;;;;;;;5.95;1.85;;;;;;;25.89;39.33;101884.06;5140277;29;20067;-78
2022/07/04 10:23:25;;;;;;;3.67;1.70;;;;;;;26.48;38.61;101884.91;5140130;29;20388;-76
2022/07/04 10:25:57;;;;;;;6.53;2.00;;;;;;;27.31;36.31;101881.47;5139846;29;20059;-78
2022/07/04 10:28:29;;;;;;;5.57;2.42;;;;;;;28.41;33.70;101888.25;5139708;29;20078;-76
2022/07/04 10:31:01;;;;;;;5.28;1.70;;;;;;;28.41;33.61;101876.66;5140033;29;20488;-75
2022/07/04 10:33:33;;;;;;;3.85;1.70;;;;;;;27.79;34.83;101889.81;5140439;29;20028;-80
2022/07/04 10:36:18;;;;;;;3.78;2.10;;;;;;;28.02;34.24;101876.69;5140213;29;20030;-75
2022/07/04 10:38:55;;;;;;;7.20;2.05;;;;;;;28.62;33.84;101869.78;5139648;29;20141;-76
2022/07/04 10:41:28;;;;;;;5.43;2.35;;;;;;;29.22;32.64;101868.09;5138273;29;20023;-79
2022/07/04 10:44:04;;;;;;;7.85;1.98;;;;;;;29.43;31.79;101856.69;5139796;29;20072;-76
2022/07/04 10:46:49;;;;;;;4.32;1.65;;;;;;;27.91;33.00;101861.31;5140102;29;20028;-76
2022/07/04 10:49:24;;;;;;;7.30;2.53;;;;;;;27.53;34.19;101861.25;5139252;29;20039;-76
2022/07/04 10:52:09;;;;;;;6.38;1.95;;;;;;;27.97;34.14;101860.06;5139329;29;20039;-76
2022/07/04 10:54:42;;;;;;;5.45;1.92;;;;;;;28.15;33.43;101860.59;5139055;29;20036;-77
2022/07/04 10:57:15;;;;;;;5.13;1.98;;;;;;;29.31;31.36;101860.31;5122249;29;20066;-76
2022/07/04 10:59:56;;;;;;;7.45;2.05;;;;;;;30.15;29.78;101861.88;5139900;29;20039;-78
2022/07/04 11:02:36;;;;;;;6.93;2.05;;;;;;;30.62;30.26;101845.59;5157609;29;20103;-76
2022/07/04 11:05:09;;;;;;;4.47;2.20;;;;;;;28.53;31.91;101849.81;5154790;29;20019;-75
2022/07/04 11:07:40;;;;;;;5.00;2.15;;;;;;;28.97;32.62;101855.59;5144274;29;20036;-75
2022/07/04 11:12:55;;;;;;;5.13;1.90;;;;;;;30.48;31.12;101849.44;5139607;29;19914;-76
2022/07/04 11:15:32;;;;;;;6.85;2.35;;;;;;;28.57;30.34;101853.16;5140714;29;20047;-75
2022/07/04 11:18:09;;;;;;;4.00;1.80;;;;;;;26.97;32.91;101853.34;5146267;29;20031;-76
2022/07/04 11:20:48;;;;;;;3.58;1.95;;;;;;;27.76;32.51;101843.63;5146264;29;20027;-75
2022/07/04 11:23:20;;;;;;;6.32;1.83;;;;;;;27.61;32.89;101854.44;5145565;29;20031;-77
2022/07/04 11:25:54;;;;;;;;;;;;;;;29.63;30.44;101847.97;5146602;29;20023;-75
2022/07/04 11:28:33;;;;;;;6.07;1.92;;;;;;;28.65;30.74;101840.03;5147566;29;19918;-76
2022/07/04 11:31:07;;;;;;;6.15;1.92;;;;;;;26.94;33.92;101843.72;5152822;29;20047;-74
2022/07/04 11:33:41;;;;;;;5.68;2.30;;;;;;;26.30;36.43;101838.81;5153206;29;20032;-75
2022/07/04 11:36:22;;;;;;;8.30;2.00;;;;;;;27.03;35.31;101836.88;5146142;29;20024;-76
2022/07/04 11:39:02;;;;;;;6.82;1.95;;;;;;;25.76;35.86;101844.78;5146140;29;20032;-77
2022/07/04 11:47:19;;;;;;;;;;;;;;;26.04;36.73;101837.78;5146797;29;20051;-77
2022/07/04 11:49:55;;;;;;;4.90;2.28;;;;;;;25.52;38.71;101835.53;5146333;29;19915;-76
2022/07/04 11:52:28;;;;;;;10.15;3.33;;;;;;;27.43;36.12;101831.56;5147104;29;20027;-75
2022/07/04 11:54:59;;;;;;;5.78;3.22;;;;;;;28.45;33.93;101830.75;5146645;29;20024;-77
2022/07/04 11:57:35;;;;;;;;;;;;;;;30.57;32.23;101817.38;5147088;29;20028;-76
2022/07/04 12:00:12;;;;;;;7.45;2.95;;;;;;;29.72;31.02;101819.53;5147087;29;20295;-77
2022/07/04 12:02:47;;;;;;;5.22;2.30;;;;;;;31.39;26.36;101823.06;5146929;29;20032;-76
2022/07/04 12:05:18;;;;;;;6.95;2.78;;;;;;;31.25;26.07;101831.47;5146634;29;20032;-75
2022/07/04 12:07:50;;;;;;;7.15;2.65;;;;;;;32.04;26.04;101825.63;5129487;29;20569;-76
2022/07/04 12:10:24;;;;;;;6.18;3.13;;;;;;;31.20;26.63;101825.63;5147096;29;20388;-77
2022/07/04 12:12:58;;;;;;;7.15;2.75;;;;;;;31.05;27.12;101822.41;5148002;29;20111;-75
2022/07/04 12:15:41;;;;;;;7.32;3.20;;;;;;;28.89;30.48;101828.47;5146472;29;20079;-76